sensor_id;sensor_type;location;lat;lon;timestamp;pressure;altitude;pressure_sealevel;temperature;humidity
4123;BME280;2075;51.062;6.920;2024-01-15T00:01:48;24312.59;;;-144.48;100.00
4123;BME280;2075;51.062;6.920;2024-01-15T00:04:36;16933.00;;;-144.48;100.00
4123;BME280;2075;51.062;6.920;2024-01-15T00:07:23;12360.81;;;-144.48;100.00
4123;BME280;2075;51.062;6.920;2024-01-15T00:10:09;10330.75;;;-144.48;100.00
4123;BME280;2075;51.062;6.920;2024-01-15T00:12:54;8555.47;;;-144.48;100.00
4123;BME280;2075;51.062;6.920;2024-01-15T00:15:39;7288.00;;;-144.48;100.00
4123;BME280;2075;51.062;6.920;2024-01-15T00:18:25;7288.00;;;-144.48;100.00
4123;BME280;2075;51.062;6.920;2024-01-15T00:21:10;6781.16;;;-144.48;100.00
4123;BME280;2075;51.062;6.920;2024-01-15T00:23:57;5767.69;;;-144.48;100.00
4123;BME280;2075;51.062;6.920;2024-01-15T00:26:43;3741.69;;;-144.48;100.00
4123;BME280;2075;51.062;6.920;2024-01-15T00:29:28;957.97;;;-144.48;100.00
4123;BME280;2075;51.062;6.920;2024-01-15T00:32:14;-1317.84;;;-144.48;100.00
4123;BME280;2075;51.062;6.920;2024-01-15T00:34:59;-2581.53;;;-144.48;100.00
4123;BME280;2075;51.062;6.920;2024-01-15T00:37:44;-4097.28;;;-144.48;100.00
4123;BME280;2075;51.062;6.920;2024-01-15T00:40:31;-6117.19;;;-144.48;100.00
4123;BME280;2075;51.062;6.920;2024-01-15T00:43:17;-7126.69;;;-144.48;100.00
4123;BME280;2075;51.062;6.920;2024-01-15T00:46:03;-7883.59;;;-144.48;100.00
4123;BME280;2075;51.062;6.920;2024-01-15T00:48:49;-8388.09;;;-144.48;100.00
4123;BME280;2075;51.062;6.920;2024-01-15T00:51:35;-8892.53;;;-144.48;100.00
4123;BME280;2075;51.062;6.920;2024-01-15T00:54:20;-8892.53;;;-144.48;100.00
4123;BME280;2075;51.062;6.920;2024-01-15T00:57:07;-9144.72;;;-144.48;100.00
4123;BME280;2075;51.062;6.920;2024-01-15T00:59:52;-8892.53;;;-144.48;100.00
4123;BME280;2075;51.062;6.920;2024-01-15T01:02:38;-8892.53;;;-144.48;100.00
4123;BME280;2075;51.062;6.920;2024-01-15T01:05:23;-8640.34;;;-144.48;100.00
4123;BME280;2075;51.062;6.920;2024-01-15T01:08:08;-8388.09;;;-144.48;100.00
4123;BME280;2075;51.062;6.920;2024-01-15T01:10:55;-8388.09;;;-144.48;100.00
4123;BME280;2075;51.062;6.920;2024-01-15T01:13:42;-8388.09;;;-144.48;100.00
4123;BME280;2075;51.062;6.920;2024-01-15T01:16:28;-8640.34;;;-144.48;100.00
4123;BME280;2075;51.062;6.920;2024-01-15T01:19:15;-8892.53;;;-144.48;100.00
4123;BME280;2075;51.062;6.920;2024-01-15T01:22:00;-8892.53;;;-144.48;100.00
4123;BME280;2075;51.062;6.920;2024-01-15T01:24:46;-8892.53;;;-144.48;100.00
4123;BME280;2075;51.062;6.920;2024-01-15T01:27:32;-8640.34;;;-144.48;100.00
4123;BME280;2075;51.062;6.920;2024-01-15T01:30:18;-8892.53;;;-144.48;100.00
4123;BME280;2075;51.062;6.920;2024-01-15T01:33:04;-8892.53;;;-144.48;100.00
4123;BME280;2075;51.062;6.920;2024-01-15T01:35:49;-8640.34;;;-144.48;100.00
4123;BME280;2075;51.062;6.920;2024-01-15T01:38:35;-8892.53;;;-144.48;100.00
4123;BME280;2075;51.062;6.920;2024-01-15T01:41:20;-8640.34;;;-144.48;100.00
4123;BME280;2075;51.062;6.920;2024-01-15T01:44:08;-8640.34;;;-144.48;100.00
4123;BME280;2075;51.062;6.920;2024-01-15T01:46:55;-8388.09;;;-144.48;100.00
4123;BME280;2075;51.062;6.920;2024-01-15T01:49:41;-8640.34;;;-144.48;100.00
4123;BME280;2075;51.062;6.920;2024-01-15T01:52:27;-8135.88;;;-144.48;100.00
4123;BME280;2075;51.062;6.920;2024-01-15T01:55:12;-8135.88;;;-144.48;100.00
4123;BME280;2075;51.062;6.920;2024-01-15T01:57:58;-7631.31;;;-144.48;100.00
4123;BME280;2075;51.062;6.920;2024-01-15T02:00:43;-7379.00;;;-144.48;100.00
4123;BME280;2075;51.062;6.920;2024-01-15T02:03:30;-7126.69;;;-144.48;100.00
4123;BME280;2075;51.062;6.920;2024-01-15T02:06:16;-6369.59;;;-144.48;100.00
4123;BME280;2075;51.062;6.920;2024-01-15T02:09:01;-5864.78;;;-144.48;100.00
4123;BME280;2075;51.062;6.920;2024-01-15T02:11:47;-5359.88;;;-144.48;100.00
4123;BME280;2075;51.062;6.920;2024-01-15T02:14:32;-4602.38;;;-144.48;100.00
4123;BME280;2075;51.062;6.920;2024-01-15T02:17:17;-4097.28;;;-144.48;100.00
4123;BME280;2075;51.062;6.920;2024-01-15T02:20:06;-3844.69;;;-144.48;100.00
4123;BME280;2075;51.062;6.920;2024-01-15T02:22:51;-3339.50;;;-144.48;100.00
4123;BME280;2075;51.062;6.920;2024-01-15T02:25:40;-3086.84;;;-144.48;100.00
4123;BME280;2075;51.062;6.920;2024-01-15T02:28:26;-2581.53;;;-144.48;100.00
4123;BME280;2075;51.062;6.920;2024-01-15T02:31:11;-2581.53;;;-144.48;100.00
4123;BME280;2075;51.062;6.920;2024-01-15T02:33:57;-2581.53;;;-144.48;100.00
4123;BME280;2075;51.062;6.920;2024-01-15T02:36:42;-1823.38;;;-144.48;100.00
4123;BME280;2075;51.062;6.920;2024-01-15T02:39:27;-1065.06;;;-144.48;100.00
4123;BME280;2075;51.062;6.920;2024-01-15T02:42:14;-306.56;;;-144.48;100.00
4123;BME280;2075;51.062;6.920;2024-01-15T02:45:00;705.03;;;-144.48;100.00
4123;BME280;2075;51.062;6.920;2024-01-15T02:47:46;1716.94;;;-144.48;100.00
4123;BME280;2075;51.062;6.920;2024-01-15T02:50:31;2729.16;;;-144.48;100.00
4123;BME280;2075;51.062;6.920;2024-01-15T02:53:16;3488.53;;;-144.48;100.00
4123;BME280;2075;51.062;6.920;2024-01-15T02:56:02;5007.78;;;-144.48;100.00
4123;BME280;2075;51.062;6.920;2024-01-15T02:58:48;5007.78;;;-144.48;100.00
4123;BME280;2075;51.062;6.920;2024-01-15T03:01:34;6021.03;;;-144.48;100.00
4123;BME280;2075;51.062;6.920;2024-01-15T03:04:19;6021.03;;;-144.48;100.00
4123;BME280;2075;51.062;6.920;2024-01-15T03:07:04;4248.06;;;-144.48;100.00
4123;BME280;2075;51.062;6.920;2024-01-15T03:09:52;2476.06;;;-144.48;100.00
4123;BME280;2075;51.062;6.920;2024-01-15T03:12:37;1969.97;;;-144.48;100.00
4123;BME280;2075;51.062;6.920;2024-01-15T03:15:24;2982.25;;;-144.48;100.00
4123;BME280;2075;51.062;6.920;2024-01-15T03:18:10;4248.06;;;-144.48;100.00
4123;BME280;2075;51.062;6.920;2024-01-15T03:20:55;5767.69;;;-144.48;100.00
4123;BME280;2075;51.062;6.920;2024-01-15T03:23:41;7541.47;;;-144.48;100.00
4123;BME280;2075;51.062;6.920;2024-01-15T03:26:26;8301.94;;;-144.48;100.00
4123;BME280;2075;51.062;6.920;2024-01-15T03:29:11;7541.47;;;-144.48;100.00
4123;BME280;2075;51.062;6.920;2024-01-15T03:31:58;6527.75;;;-144.48;100.00
4123;BME280;2075;51.062;6.920;2024-01-15T03:34:44;4501.28;;;-144.48;100.00
4123;BME280;2075;51.062;6.920;2024-01-15T03:37:31;5261.06;;;-144.48;100.00
4123;BME280;2075;51.062;6.920;2024-01-15T03:40:16;6781.16;;;-144.48;100.00
4123;BME280;2075;51.062;6.920;2024-01-15T03:43:01;8809.03;;;-144.48;100.00
4123;BME280;2075;51.062;6.920;2024-01-15T03:45:47;9823.44;;;-144.48;100.00
4123;BME280;2075;51.062;6.920;2024-01-15T03:48:34;9823.44;;;-144.48;100.00
4123;BME280;2075;51.062;6.920;2024-01-15T03:51:19;9316.19;;;-144.48;100.00
4123;BME280;2075;51.062;6.920;2024-01-15T03:54:04;8809.03;;;-144.48;100.00
4123;BME280;2075;51.062;6.920;2024-01-15T03:56:50;7541.47;;;-144.48;100.00
4123;BME280;2075;51.062;6.920;2024-01-15T03:59:35;7288.00;;;-144.48;100.00
4123;BME280;2075;51.062;6.920;2024-01-15T04:02:21;8301.94;;;-144.48;100.00
4123;BME280;2075;51.062;6.920;2024-01-15T04:05:08;9569.81;;;-144.48;100.00
4123;BME280;2075;51.062;6.920;2024-01-15T04:07:54;11091.88;;;-144.48;100.00
4123;BME280;2075;51.062;6.920;2024-01-15T04:10:39;12107.00;;;-144.48;100.00
4123;BME280;2075;51.062;6.920;2024-01-15T04:13:25;12360.81;;;-144.48;100.00
4123;BME280;2075;51.062;6.920;2024-01-15T04:16:11;13884.19;;;-144.48;100.00
4123;BME280;2075;51.062;6.920;2024-01-15T04:18:56;14138.13;;;-144.48;100.00
4123;BME280;2075;51.062;6.920;2024-01-15T04:21:43;14900.13;;;-144.48;100.00
4123;BME280;2075;51.062;6.920;2024-01-15T04:24:28;16678.81;;;-144.48;100.00
4123;BME280;2075;51.062;6.920;2024-01-15T04:27:16;14138.13;;;-144.48;100.00
4123;BME280;2075;51.062;6.920;2024-01-15T04:30:01;14138.13;;;-144.48;100.00
4123;BME280;2075;51.062;6.920;2024-01-15T04:32:47;15916.41;;;-144.48;100.00
4123;BME280;2075;51.062;6.920;2024-01-15T04:35:33;15916.41;;;-144.48;100.00
4123;BME280;2075;51.062;6.920;2024-01-15T04:38:20;17187.19;;;-144.48;100.00
4123;BME280;2075;51.062;6.920;2024-01-15T04:41:05;17441.41;;;-144.48;100.00
4123;BME280;2075;51.062;6.920;2024-01-15T04:43:51;17949.91;;;-144.48;100.00
4123;BME280;2075;51.062;6.920;2024-01-15T04:46:36;18967.13;;;-144.48;100.00
4123;BME280;2075;51.062;6.920;2024-01-15T04:49:22;21257.00;;;-144.48;100.00
4123;BME280;2075;51.062;6.920;2024-01-15T04:52:10;21002.47;;;-144.48;100.00
4123;BME280;2075;51.062;6.920;2024-01-15T04:54:58;21766.06;;;-144.48;100.00
4123;BME280;2075;51.062;6.920;2024-01-15T04:57:43;21511.53;;;-144.48;100.00
4123;BME280;2075;51.062;6.920;2024-01-15T05:00:29;21511.53;;;-144.48;100.00
4123;BME280;2075;51.062;6.920;2024-01-15T05:03:15;21511.53;;;-144.48;100.00
4123;BME280;2075;51.062;6.920;2024-01-15T05:06:00;20493.53;;;-144.48;100.00
4123;BME280;2075;51.062;6.920;2024-01-15T05:08:46;18967.13;;;-144.48;100.00
4123;BME280;2075;51.062;6.920;2024-01-15T05:11:33;18204.19;;;-144.48;100.00
4123;BME280;2075;51.062;6.920;2024-01-15T05:14:19;17187.19;;;-144.48;100.00
4123;BME280;2075;51.062;6.920;2024-01-15T05:17:04;16170.53;;;-144.48;100.00
4123;BME280;2075;51.062;6.920;2024-01-15T05:19:50;19730.22;;;-144.48;100.00
4123;BME280;2075;51.062;6.920;2024-01-15T05:22:35;20493.53;;;-144.48;100.00
4123;BME280;2075;51.062;6.920;2024-01-15T05:25:21;20493.53;;;-144.48;100.00
4123;BME280;2075;51.062;6.920;2024-01-15T05:28:08;22784.44;;;-144.48;100.00
4123;BME280;2075;51.062;6.920;2024-01-15T05:30:53;23039.09;;;-144.48;100.00
4123;BME280;2075;51.062;6.920;2024-01-15T05:33:39;23293.75;;;-144.48;100.00
4123;BME280;2075;51.062;6.920;2024-01-15T05:36:25;25331.78;;;-144.48;100.00
4123;BME280;2075;51.062;6.920;2024-01-15T05:39:11;24312.59;;;-144.48;100.00
4123;BME280;2075;51.062;6.920;2024-01-15T05:41:57;22784.44;;;-144.48;100.00
4123;BME280;2075;51.062;6.920;2024-01-15T05:44:44;21257.00;;;-144.48;100.00
4123;BME280;2075;51.062;6.920;2024-01-15T05:47:30;20748.00;;;-144.48;100.00
4123;BME280;2075;51.062;6.920;2024-01-15T05:50:19;18712.78;;;-144.48;100.00
4123;BME280;2075;51.062;6.920;2024-01-15T05:53:10;16678.81;;;-144.48;100.00
4123;BME280;2075;51.062;6.920;2024-01-15T05:55:56;17441.41;;;-144.48;100.00
4123;BME280;2075;51.062;6.920;2024-01-15T05:58:44;19221.47;;;-144.48;100.00
4123;BME280;2075;51.062;6.920;2024-01-15T06:01:31;20748.00;;;-144.48;100.00
4123;BME280;2075;51.062;6.920;2024-01-15T06:04:16;20748.00;;;-144.48;100.00
4123;BME280;2075;51.062;6.920;2024-01-15T06:07:02;20493.53;;;-144.48;100.00
4123;BME280;2075;51.062;6.920;2024-01-15T06:09:47;21511.53;;;-144.48;100.00
4123;BME280;2075;51.062;6.920;2024-01-15T06:12:33;22020.63;;;-144.48;100.00
4123;BME280;2075;51.062;6.920;2024-01-15T06:15:18;23039.09;;;-144.48;100.00
4123;BME280;2075;51.062;6.920;2024-01-15T06:18:05;22529.81;;;-144.48;100.00
4123;BME280;2075;51.062;6.920;2024-01-15T06:20:51;22784.44;;;-144.48;100.00
4123;BME280;2075;51.062;6.920;2024-01-15T06:23:40;21002.47;;;-144.48;100.00
4123;BME280;2075;51.062;6.920;2024-01-15T06:26:26;22529.81;;;-144.48;100.00
4123;BME280;2075;51.062;6.920;2024-01-15T06:29:12;24822.16;;;-144.48;100.00
4123;BME280;2075;51.062;6.920;2024-01-15T06:31:57;23803.16;;;-144.48;100.00
4123;BME280;2075;51.062;6.920;2024-01-15T06:34:44;24822.16;;;-144.48;100.00
4123;BME280;2075;51.062;6.920;2024-01-15T06:37:30;25586.63;;;-144.48;100.00
4123;BME280;2075;51.062;6.920;2024-01-15T06:40:17;26351.25;;;-144.48;100.00
4123;BME280;2075;51.062;6.920;2024-01-15T06:43:03;28391.13;;;-144.48;100.00
4123;BME280;2075;51.062;6.920;2024-01-15T06:45:49;27371.03;;;-144.48;100.00
4123;BME280;2075;51.062;6.920;2024-01-15T06:48:34;26096.34;;;-144.48;100.00
4123;BME280;2075;51.062;6.920;2024-01-15T06:51:21;24057.88;;;-144.48;100.00
4123;BME280;2075;51.062;6.920;2024-01-15T06:54:09;21002.47;;;-144.48;100.00
4123;BME280;2075;51.062;6.920;2024-01-15T06:56:54;18967.13;;;-144.48;100.00
4123;BME280;2075;51.062;6.920;2024-01-15T06:59:40;18458.47;;;-144.48;100.00
4123;BME280;2075;51.062;6.920;2024-01-15T07:02:28;15916.41;;;-144.48;100.00
4123;BME280;2075;51.062;6.920;2024-01-15T07:05:13;12868.53;;;-144.48;100.00
4123;BME280;2075;51.062;6.920;2024-01-15T07:08:00;12107.00;;;-144.48;100.00
4123;BME280;2075;51.062;6.920;2024-01-15T07:10:46;11091.88;;;-144.48;100.00
4123;BME280;2075;51.062;6.920;2024-01-15T07:13:32;9316.19;;;-144.48;100.00
4123;BME280;2075;51.062;6.920;2024-01-15T07:16:17;8809.03;;;-144.48;100.00
4123;BME280;2075;51.062;6.920;2024-01-15T07:19:03;8555.47;;;-144.48;100.00
4123;BME280;2075;51.062;6.920;2024-01-15T07:21:48;9062.59;;;-144.48;100.00
4123;BME280;2075;51.062;6.920;2024-01-15T07:24:35;9569.81;;;-144.48;100.00
4123;BME280;2075;51.062;6.920;2024-01-15T07:27:20;11853.19;;;-144.48;100.00
4123;BME280;2075;51.062;6.920;2024-01-15T07:30:07;13122.41;;;-144.48;100.00
4123;BME280;2075;51.062;6.920;2024-01-15T07:32:53;15662.31;;;-144.48;100.00
4123;BME280;2075;51.062;6.920;2024-01-15T07:35:38;15916.41;;;-144.48;100.00
4123;BME280;2075;51.062;6.920;2024-01-15T07:38:24;15408.25;;;-144.48;100.00
4123;BME280;2075;51.062;6.920;2024-01-15T07:41:11;15916.41;;;-144.48;100.00
4123;BME280;2075;51.062;6.920;2024-01-15T07:44:02;16424.66;;;-144.48;100.00
4123;BME280;2075;51.062;6.920;2024-01-15T07:46:48;17441.41;;;-144.48;100.00
4123;BME280;2075;51.062;6.920;2024-01-15T07:49:33;20748.00;;;-144.48;100.00
4123;BME280;2075;51.062;6.920;2024-01-15T07:52:19;21511.53;;;-144.48;100.00
4123;BME280;2075;51.062;6.920;2024-01-15T07:55:05;23803.16;;;-144.48;100.00
4123;BME280;2075;51.062;6.920;2024-01-15T07:57:52;24822.16;;;-144.48;100.00
4123;BME280;2075;51.062;6.920;2024-01-15T08:00:42;27626.03;;;-144.48;100.00
4123;BME280;2075;51.062;6.920;2024-01-15T08:03:28;31453.31;;;-144.48;100.00
4123;BME280;2075;51.062;6.920;2024-01-15T08:06:15;31963.94;;;-144.48;100.00
4123;BME280;2075;51.062;6.920;2024-01-15T08:09:00;32219.28;;;-144.48;100.00
4123;BME280;2075;51.062;6.920;2024-01-15T08:11:48;33496.31;;;-144.48;100.00
4123;BME280;2075;51.062;6.920;2024-01-15T08:14:36;34518.28;;;-144.48;100.00
4123;BME280;2075;51.062;6.920;2024-01-15T08:17:22;37074.59;;;-144.48;100.00
4123;BME280;2075;51.062;6.920;2024-01-15T08:20:12;38609.28;;;-144.48;100.00
4123;BME280;2075;51.062;6.920;2024-01-15T08:22:57;42961.47;;;-144.48;100.00
4123;BME280;2075;51.062;6.920;2024-01-15T08:25:43;42449.16;;;-144.48;100.00
4123;BME280;2075;51.062;6.920;2024-01-15T08:28:28;45011.50;;;-144.48;100.00
4123;BME280;2075;51.062;6.920;2024-01-15T08:31:16;46293.41;;;-144.48;100.00
4123;BME280;2075;51.062;6.920;2024-01-15T08:34:01;48602.03;;;-144.48;100.00
4123;BME280;2075;51.062;6.920;2024-01-15T08:36:47;50142.03;;;-144.48;100.00
4123;BME280;2075;51.062;6.920;2024-01-15T08:39:33;49371.94;;;-144.48;100.00
4123;BME280;2075;51.062;6.920;2024-01-15T08:42:19;45780.56;;;-144.48;100.00
4123;BME280;2075;51.062;6.920;2024-01-15T08:45:06;41168.72;;;-144.48;100.00
4123;BME280;2075;51.062;6.920;2024-01-15T08:47:53;34007.25;;;-144.48;100.00
4123;BME280;2075;51.062;6.920;2024-01-15T08:50:39;29156.41;;;-144.48;100.00
4123;BME280;2075;51.062;6.920;2024-01-15T08:53:27;24567.38;;;-144.48;100.00
4123;BME280;2075;51.062;6.920;2024-01-15T08:56:12;19221.47;;;-144.48;100.00
4123;BME280;2075;51.062;6.920;2024-01-15T08:58:58;18712.78;;;-144.48;100.00
4123;BME280;2075;51.062;6.920;2024-01-15T09:01:43;16424.66;;;-144.48;100.00
4123;BME280;2075;51.062;6.920;2024-01-15T09:04:30;16170.53;;;-144.48;100.00
4123;BME280;2075;51.062;6.920;2024-01-15T09:07:17;14392.13;;;-144.48;100.00
4123;BME280;2075;51.062;6.920;2024-01-15T09:10:04;11091.88;;;-144.48;100.00
4123;BME280;2075;51.062;6.920;2024-01-15T09:12:50;7794.94;;;-144.48;100.00
4123;BME280;2075;51.062;6.920;2024-01-15T09:15:37;5007.78;;;-144.48;100.00
4123;BME280;2075;51.062;6.920;2024-01-15T09:18:23;4248.06;;;-144.48;100.00
4123;BME280;2075;51.062;6.920;2024-01-15T09:21:12;2982.25;;;-144.48;100.00
4123;BME280;2075;51.062;6.920;2024-01-15T09:23:58;2476.06;;;-144.48;100.00
4123;BME280;2075;51.062;6.920;2024-01-15T09:26:44;2476.06;;;-144.48;100.00
4123;BME280;2075;51.062;6.920;2024-01-15T09:29:29;2982.25;;;-144.48;100.00
4123;BME280;2075;51.062;6.920;2024-01-15T09:32:15;3741.69;;;-144.48;100.00
4123;BME280;2075;51.062;6.920;2024-01-15T09:35:05;4501.28;;;-144.48;100.00
4123;BME280;2075;51.062;6.920;2024-01-15T09:37:52;4248.06;;;-144.48;100.00
4123;BME280;2075;51.062;6.920;2024-01-15T09:40:38;3994.88;;;-144.48;100.00
4123;BME280;2075;51.062;6.920;2024-01-15T09:43:25;2982.25;;;-144.48;100.00
4123;BME280;2075;51.062;6.920;2024-01-15T09:46:12;3488.53;;;-144.48;100.00
4123;BME280;2075;51.062;6.920;2024-01-15T09:48:58;2982.25;;;-144.48;100.00
4123;BME280;2075;51.062;6.920;2024-01-15T09:51:45;2476.06;;;-144.48;100.00
4123;BME280;2075;51.062;6.920;2024-01-15T09:54:33;957.97;;;-144.48;100.00
4123;BME280;2075;51.062;6.920;2024-01-15T09:57:19;1210.94;;;-144.48;100.00
4123;BME280;2075;51.062;6.920;2024-01-15T10:00:06;2223.00;;;-144.48;100.00
4123;BME280;2075;51.062;6.920;2024-01-15T10:02:56;2223.00;;;-144.48;100.00
4123;BME280;2075;51.062;6.920;2024-01-15T10:05:42;1210.94;;;-144.48;100.00
4123;BME280;2075;51.062;6.920;2024-01-15T10:08:29;957.97;;;-144.48;100.00
4123;BME280;2075;51.062;6.920;2024-01-15T10:11:17;3235.38;;;-144.48;100.00
4123;BME280;2075;51.062;6.920;2024-01-15T10:14:02;3235.38;;;-144.48;100.00
4123;BME280;2075;51.062;6.920;2024-01-15T10:16:50;1716.94;;;-144.48;100.00
4123;BME280;2075;51.062;6.920;2024-01-15T10:19:35;1210.94;;;-144.48;100.00
4123;BME280;2075;51.062;6.920;2024-01-15T10:22:21;1463.94;;;-144.48;100.00
4123;BME280;2075;51.062;6.920;2024-01-15T10:25:12;2476.06;;;-144.48;100.00
4123;BME280;2075;51.062;6.920;2024-01-15T10:28:01;2476.06;;;-144.48;100.00
4123;BME280;2075;51.062;6.920;2024-01-15T10:30:52;1716.94;;;-144.48;100.00
4123;BME280;2075;51.062;6.920;2024-01-15T10:33:37;705.03;;;-144.48;100.00
4123;BME280;2075;51.062;6.920;2024-01-15T10:36:23;957.97;;;-144.48;100.00
4123;BME280;2075;51.062;6.920;2024-01-15T10:39:09;4501.28;;;-144.48;100.00
4123;BME280;2075;51.062;6.920;2024-01-15T10:41:56;3235.38;;;-144.48;100.00
4123;BME280;2075;51.062;6.920;2024-01-15T10:44:44;2729.16;;;-144.48;100.00
4123;BME280;2075;51.062;6.920;2024-01-15T10:47:31;2982.25;;;-144.48;100.00
4123;BME280;2075;51.062;6.920;2024-01-15T10:50:18;3741.69;;;-144.48;100.00
4123;BME280;2075;51.062;6.920;2024-01-15T10:53:05;4501.28;;;-144.48;100.00
4123;BME280;2075;51.062;6.920;2024-01-15T10:55:51;5261.06;;;-144.48;100.00
4123;BME280;2075;51.062;6.920;2024-01-15T10:58:39;8809.03;;;-144.48;100.00
4123;BME280;2075;51.062;6.920;2024-01-15T11:01:26;13376.31;;;-144.48;100.00
4123;BME280;2075;51.062;6.920;2024-01-15T11:04:13;20748.00;;;-144.48;100.00
4123;BME280;2075;51.062;6.920;2024-01-15T11:06:58;25331.78;;;-144.48;100.00
4123;BME280;2075;51.062;6.920;2024-01-15T11:09:45;28901.31;;;-144.48;100.00
4123;BME280;2075;51.062;6.920;2024-01-15T11:12:31;28901.31;;;-144.48;100.00
4123;BME280;2075;51.062;6.920;2024-01-15T11:15:19;27371.03;;;-144.48;100.00
4123;BME280;2075;51.062;6.920;2024-01-15T11:18:07;31963.94;;;-144.48;100.00
4123;BME280;2075;51.062;6.920;2024-01-15T11:21:28;41680.84;;;-144.48;100.00
4123;BME280;2075;51.062;6.920;2024-01-15T11:24:33;59396.66;;;-144.48;100.00
4123;BME280;2075;51.062;6.920;2024-01-15T11:27:39;67386.16;;;-144.48;100.00
4123;BME280;2075;51.062;6.920;2024-01-15T11:30:25;84450.41;;;-144.48;100.00
4123;BME280;2075;51.062;6.920;2024-01-15T11:33:33;87693.38;;;-144.48;100.00
4123;BME280;2075;51.062;6.920;2024-01-15T11:36:18;84879.94;;;-144.48;100.00
4123;BME280;2075;51.062;6.920;2024-01-15T11:42:23;88009.72;;;-144.48;100.00
4123;BME280;2075;51.062;6.920;2024-01-15T11:45:09;81445.28;;;-144.48;100.00
4123;BME280;2075;51.062;6.920;2024-01-15T11:48:10;76497.81;;;-144.48;100.00
4123;BME280;2075;51.062;6.920;2024-01-15T11:51:00;80113.66;;;-144.48;100.00
4123;BME280;2075;51.062;6.920;2024-01-15T11:53:48;88405.19;;;-144.48;100.00
4123;BME280;2075;51.062;6.920;2024-01-15T11:56:35;87393.25;;;-144.48;100.00
4123;BME280;2075;51.062;6.920;2024-01-15T11:59:21;91487.44;;;-144.48;100.00
4123;BME280;2075;51.062;6.920;2024-01-15T12:02:07;94084.81;;;-144.48;100.00
4123;BME280;2075;51.062;6.920;2024-01-15T12:04:55;94637.44;;;-144.48;100.00
4123;BME280;2075;51.062;6.920;2024-01-15T12:07:44;94789.84;;;-144.48;100.00
4123;BME280;2075;51.062;6.920;2024-01-15T12:10:30;95080.44;;;-144.48;100.00
4123;BME280;2075;51.062;6.920;2024-01-15T12:13:16;95131.22;;;-144.48;100.00
4123;BME280;2075;51.062;6.920;2024-01-15T12:16:03;95078.41;;;-144.48;100.00
4123;BME280;2075;51.062;6.920;2024-01-15T12:18:50;95025.56;;;-144.48;100.00
4123;BME280;2075;51.062;6.920;2024-01-15T12:21:38;95019.47;;;-144.48;100.00
4123;BME280;2075;51.062;6.920;2024-01-15T12:24:25;95094.66;;;-144.48;100.00
4123;BME280;2075;51.062;6.920;2024-01-15T12:27:11;95137.31;;;-144.48;100.00
4123;BME280;2075;51.062;6.920;2024-01-15T12:29:58;95141.38;;;-144.48;100.00
4123;BME280;2075;51.062;6.920;2024-01-15T12:32:44;95149.53;;;-144.48;100.00
4123;BME280;2075;51.062;6.920;2024-01-15T12:35:31;95165.78;;;-144.48;100.00
4123;BME280;2075;51.062;6.920;2024-01-15T12:38:18;94997.13;;;-144.48;100.00
4123;BME280;2075;51.062;6.920;2024-01-15T12:41:06;94923.97;;;-144.48;100.00
4123;BME280;2075;51.062;6.920;2024-01-15T12:43:55;94942.25;;;-144.48;100.00
4123;BME280;2075;51.062;6.920;2024-01-15T12:46:42;94692.31;;;-144.48;100.00
4123;BME280;2075;51.062;6.920;2024-01-15T12:49:28;94747.19;;;-144.48;100.00
4123;BME280;2075;51.062;6.920;2024-01-15T12:52:19;94637.44;;;-144.48;100.00
4123;BME280;2075;51.062;6.920;2024-01-15T12:55:05;94460.69;;;-144.48;100.00
4123;BME280;2075;51.062;6.920;2024-01-15T12:57:52;94168.13;;;-144.48;100.00
4123;BME280;2075;51.062;6.920;2024-01-15T13:00:39;94956.47;;;-144.48;100.00
4123;BME280;2075;51.062;6.920;2024-01-15T13:03:25;94863.00;;;-144.48;100.00
4123;BME280;2075;51.062;6.920;2024-01-15T13:06:11;94978.81;;;-144.48;100.00
4123;BME280;2075;51.062;6.920;2024-01-15T13:08:57;94816.25;;;-144.48;100.00
4123;BME280;2075;51.062;6.920;2024-01-15T13:11:43;94582.59;;;-144.48;100.00
4123;BME280;2075;51.062;6.920;2024-01-15T13:14:31;94564.31;;;-144.48;100.00
4123;BME280;2075;51.062;6.920;2024-01-15T13:17:17;95021.50;;;-144.48;100.00
4123;BME280;2075;51.062;6.920;2024-01-15T13:20:04;94974.75;;;-144.48;100.00
4123;BME280;2075;51.062;6.920;2024-01-15T13:22:50;94921.94;;;-144.48;100.00
4123;BME280;2075;51.062;6.920;2024-01-15T13:25:36;94993.03;;;-144.48;100.00
4123;BME280;2075;51.062;6.920;2024-01-15T13:28:22;94737.00;;;-144.48;100.00
4123;BME280;2075;51.062;6.920;2024-01-15T13:31:10;94958.50;;;-144.48;100.00
4123;BME280;2075;51.062;6.920;2024-01-15T13:33:56;94854.88;;;-144.48;100.00
4123;BME280;2075;51.062;6.920;2024-01-15T13:36:43;94629.31;;;-144.48;100.00
4123;BME280;2075;51.062;6.920;2024-01-15T13:39:29;94472.88;;;-144.48;100.00
4123;BME280;2075;51.062;6.920;2024-01-15T13:42:17;93906.06;;;-144.48;100.00
4123;BME280;2075;51.062;6.920;2024-01-15T13:45:04;94119.34;;;-144.48;100.00
4123;BME280;2075;51.062;6.920;2024-01-15T13:47:53;93436.81;;;-144.48;100.00
4123;BME280;2075;51.062;6.920;2024-01-15T13:50:39;93538.38;;;-144.48;100.00
4123;BME280;2075;51.062;6.920;2024-01-15T13:53:24;93692.75;;;-144.48;100.00
4123;BME280;2075;51.062;6.920;2024-01-15T13:56:10;92571.66;;;-144.48;100.00
4123;BME280;2075;51.062;6.920;2024-01-15T13:58:56;92009.19;;;-144.48;100.00
4123;BME280;2075;51.062;6.920;2024-01-15T14:01:42;88299.72;;;-144.48;100.00
4123;BME280;2075;51.062;6.920;2024-01-15T14:04:30;77532.84;;;-144.48;100.00
4123;BME280;2075;51.062;6.920;2024-01-15T14:07:15;69721.31;;;-144.48;100.00
4123;BME280;2075;51.062;6.920;2024-01-15T14:10:01;60941.53;;;-144.48;100.00
4123;BME280;2075;51.062;6.920;2024-01-15T14:12:48;57080.63;;;-144.48;100.00
4123;BME280;2075;51.062;6.920;2024-01-15T14:15:34;54252.06;;;-144.48;100.00
4123;BME280;2075;51.062;6.920;2024-01-15T14:18:20;55280.38;;;-144.48;100.00
4123;BME280;2075;51.062;6.920;2024-01-15T14:21:07;55280.38;;;-144.48;100.00
4123;BME280;2075;51.062;6.920;2024-01-15T14:23:54;61714.25;;;-144.48;100.00
4123;BME280;2075;51.062;6.920;2024-01-15T14:26:42;62487.13;;;-144.48;100.00
4123;BME280;2075;51.062;6.920;2024-01-15T14:29:27;64033.44;;;-144.48;100.00
4123;BME280;2075;51.062;6.920;2024-01-15T14:32:13;62744.81;;;-144.48;100.00
4123;BME280;2075;51.062;6.920;2024-01-15T14:34:59;71016.59;;;-144.48;100.00
4123;BME280;2075;51.062;6.920;2024-01-15T14:37:47;76833.34;;;-144.48;100.00